Time;durP1;ratioP1;P1;durP2;ratioP2;P2;SDS_P1;SDS_P2;PMS_P1;PMS_P2;Temp;Humidity;BMP_temperature;BMP_pressure;BME280_temperature;BME280_humidity;BME280_pressure;Samples;Min_cycle;Max_cycle;Signal;HPM_P1;HPM_P2
2023/12/25 00:00:35;;;;;;;13.20;9.02;;;10.00;99.90;;;;;;5204133;28;20022;-72
2023/12/25 00:03:06;;;;;;;16.25;10.38;;;10.00;99.90;;;;;;5204279;28;20038;-70
2023/12/25 00:05:36;;;;;;;14.00;9.50;;;10.00;99.90;;;;;;5204230;28;20025;-72
2023/12/25 00:08:07;;;;;;;17.20;9.63;;;10.00;99.90;;;;;;5203758;28;20065;-71
2023/12/25 00:10:38;;;;;;;14.30;9.07;;;10.10;99.90;;;;;;5205390;28;20029;-71
2023/12/25 00:13:09;;;;;;;12.35;8.57;;;10.10;99.90;;;;;;5205343;28;20033;-72
2023/12/25 00:15:40;;;;;;;13.85;8.15;;;10.20;99.90;;;;;;5205219;28;20028;-70
2023/12/25 00:18:11;;;;;;;14.75;9.80;;;10.10;99.90;;;;;;5204978;28;20044;-70
2023/12/25 00:20:42;;;;;;;16.00;10.02;;;10.30;99.90;;;;;;5205038;28;20021;-72
2023/12/25 00:23:13;;;;;;;15.70;9.25;;;10.30;99.90;;;;;;5205179;28;20033;-72
2023/12/25 00:25:43;;;;;;;10.07;8.88;;;10.30;99.90;;;;;;5203922;28;20036;-70
2023/12/25 00:28:14;;;;;;;10.23;8.30;;;10.40;99.90;;;;;;5205227;28;20044;-71
2023/12/25 00:30:45;;;;;;;13.50;9.02;;;10.10;99.90;;;;;;5205069;28;20037;-72
2023/12/25 00:33:16;;;;;;;13.27;9.30;;;10.40;99.90;;;;;;5203683;28;20040;-70
2023/12/25 00:35:47;;;;;;;13.23;9.40;;;10.90;99.90;;;;;;5203308;28;20591;-72
2023/12/25 00:38:18;;;;;;;14.27;8.80;;;11.00;99.90;;;;;;5205017;28;20465;-70
2023/12/25 00:40:49;;;;;;;15.18;9.00;;;11.00;99.90;;;;;;5203674;28;20026;-72
2023/12/25 00:43:19;;;;;;;15.98;9.25;;;11.10;99.90;;;;;;5204706;28;20465;-70
2023/12/25 00:45:50;;;;;;;18.58;8.80;;;11.10;99.90;;;;;;5204406;28;20025;-71
2023/12/25 00:48:21;;;;;;;15.65;9.95;;;11.10;99.90;;;;;;5203717;28;20128;-70
2023/12/25 00:50:52;;;;;;;13.27;8.35;;;11.20;99.90;;;;;;5203677;28;20056;-72
2023/12/25 00:53:23;;;;;;;16.13;8.40;;;11.00;99.90;;;;;;5203791;28;20108;-70
2023/12/25 00:55:54;;;;;;;13.70;8.95;;;11.10;99.90;;;;;;5203503;28;20026;-70
2023/12/25 00:58:25;;;;;;;11.73;7.68;;;11.10;99.90;;;;;;5203500;28;20026;-71
2023/12/25 01:00:55;;;;;;;13.40;8.38;;;10.90;99.90;;;;;;5204015;28;20057;-71
2023/12/25 01:03:26;;;;;;;14.70;9.07;;;11.00;99.90;;;;;;5204473;28;20017;-72
2023/12/25 01:05:57;;;;;;;11.63;9.07;;;11.20;99.90;;;;;;5203825;28;20207;-71
2023/12/25 01:08:28;;;;;;;14.70;8.60;;;11.00;99.90;;;;;;5204893;28;20052;-70
2023/12/25 01:11:02;;;;;;;16.52;10.15;;;10.90;99.90;;;;;;5204452;28;20030;-70
2023/12/25 01:13:33;;;;;;;12.32;9.40;;;11.10;99.90;;;;;;5204838;28;20025;-70
2023/12/25 01:16:04;;;;;;;15.10;11.65;;;11.10;99.90;;;;;;5203521;28;20022;-71
2023/12/25 01:18:35;;;;;;;14.52;11.75;;;11.10;99.90;;;;;;5204480;28;20088;-70
2023/12/25 01:21:06;;;;;;;15.68;10.77;;;11.20;99.90;;;;;;5204660;28;20049;-72
2023/12/25 01:23:37;;;;;;;18.02;12.00;;;11.00;99.90;;;;;;5204426;28;20041;-70
2023/12/25 01:26:08;;;;;;;20.40;11.20;;;11.00;99.90;;;;;;5204611;28;20037;-70
2023/12/25 01:28:39;;;;;;;17.30;8.95;;;11.00;99.90;;;;;;5204384;28;20033;-70
2023/12/25 01:31:09;;;;;;;16.20;8.10;;;11.00;99.90;;;;;;5204370;28;20104;-70
2023/12/25 01:33:40;;;;;;;16.42;6.93;;;10.80;99.90;;;;;;5204276;28;20034;-70
2023/12/25 01:36:11;;;;;;;18.02;7.40;;;10.80;99.90;;;;;;5204398;28;20377;-70
2023/12/25 01:38:42;;;;;;;11.32;7.10;;;10.60;99.90;;;;;;5204216;28;20481;-70
2023/12/25 01:41:13;;;;;;;14.10;8.60;;;11.00;99.90;;;;;;5203605;28;20083;-70
2023/12/25 01:43:44;;;;;;;13.63;7.50;;;10.90;99.90;;;;;;5202312;28;20025;-71
2023/12/25 01:46:15;;;;;;;14.52;8.05;;;10.70;99.90;;;;;;5202974;28;20385;-72
2023/12/25 01:48:51;;;;;;;13.80;7.00;;;10.60;99.90;;;;;;5201084;28;20485;-71
2023/12/25 01:51:22;;;;;;;9.88;6.50;;;10.50;99.90;;;;;;5203210;28;20028;-71
2023/12/25 01:53:54;;;;;;;13.57;7.75;;;10.50;99.90;;;;;;5203289;28;20029;-70
2023/12/25 01:56:24;;;;;;;14.40;7.32;;;10.40;99.90;;;;;;5206626;28;20025;-71
2023/12/25 01:58:55;;;;;;;9.90;6.75;;;10.10;99.90;;;;;;5207186;28;20033;-70
2023/12/25 02:01:26;;;;;;;12.98;6.20;;;10.10;99.90;;;;;;5207903;28;20037;-71
2023/12/25 02:03:57;;;;;;;19.90;8.05;;;10.30;99.90;;;;;;5208184;28;20061;-72
2023/12/25 02:06:29;;;;;;;14.13;8.48;;;10.10;99.90;;;;;;5207882;28;20029;-71
2023/12/25 02:09:01;;;;;;;13.82;7.97;;;10.10;99.90;;;;;;5207747;28;20029;-71
2023/12/25 02:11:33;;;;;;;17.45;9.68;;;10.30;99.90;;;;;;5207345;28;20079;-71
2023/12/25 02:14:04;;;;;;;15.90;8.07;;;10.50;99.90;;;;;;5207843;28;20025;-70
2023/12/25 02:16:36;;;;;;;18.92;8.02;;;10.50;99.90;;;;;;5208291;28;20022;-71
2023/12/25 02:19:32;;;;;;;13.27;7.15;;;10.50;99.90;;;;;;5208206;28;20041;-70
2023/12/25 02:22:03;;;;;;;19.80;8.07;;;10.50;99.90;;;;;;5207855;28;20431;-70
2023/12/25 02:24:37;;;;;;;16.65;8.23;;;10.60;99.90;;;;;;5207372;28;20026;-70
2023/12/25 02:27:08;;;;;;;17.13;8.32;;;10.60;99.90;;;;;;5207470;28;20389;-72
2023/12/25 02:29:40;;;;;;;12.23;7.30;;;10.70;99.90;;;;;;5207705;28;20033;-72
2023/12/25 02:32:10;;;;;;;15.25;7.22;;;10.60;99.90;;;;;;5207671;28;20105;-71
2023/12/25 02:34:43;;;;;;;13.20;7.25;;;10.50;99.90;;;;;;5207313;28;20086;-70
2023/12/25 02:37:14;;;;;;;14.77;7.28;;;10.30;99.90;;;;;;5206760;28;20087;-71
2023/12/25 02:39:45;;;;;;;14.38;7.00;;;10.50;99.90;;;;;;5206416;28;20396;-70
2023/12/25 02:42:16;;;;;;;16.23;7.20;;;10.50;99.90;;;;;;5206108;28;20029;-70
2023/12/25 02:44:47;;;;;;;13.65;6.38;;;10.30;99.90;;;;;;5206081;28;20540;-71
2023/12/25 02:47:18;;;;;;;12.63;6.82;;;10.30;99.90;;;;;;5205417;28;20497;-70
2023/12/25 02:49:48;;;;;;;12.75;7.47;;;10.20;99.90;;;;;;5205504;28;20025;-71
2023/12/25 02:52:19;;;;;;;15.40;7.40;;;10.30;99.90;;;;;;5205591;28;20047;-72
2023/12/25 02:54:50;;;;;;;16.00;7.65;;;10.30;99.90;;;;;;5206281;28;20029;-71
2023/12/25 02:57:21;;;;;;;15.00;7.20;;;10.30;99.90;;;;;;5206433;28;20022;-70
2023/12/25 02:59:52;;;;;;;11.68;6.95;;;10.50;99.90;;;;;;5206718;28;20037;-72
2023/12/25 03:02:23;;;;;;;15.65;5.80;;;10.40;99.90;;;;;;5206407;28;20064;-71
2023/12/25 03:04:54;;;;;;;9.60;5.68;;;10.20;99.90;;;;;;5206507;28;20401;-71
2023/12/25 03:07:24;;;;;;;9.30;6.78;;;10.20;99.90;;;;;;5206322;28;20072;-70
2023/12/25 03:09:55;;;;;;;13.30;6.70;;;10.20;99.90;;;;;;5206218;28;20091;-70
2023/12/25 03:12:26;;;;;;;14.63;6.68;;;10.00;99.90;;;;;;5206205;28;20021;-70
2023/12/25 03:14:57;;;;;;;12.52;6.47;;;10.00;99.90;;;;;;5206279;28;20116;-70
2023/12/25 03:17:28;;;;;;;13.52;6.88;;;9.90;99.90;;;;;;5206015;28;20067;-70
2023/12/25 03:19:59;;;;;;;11.88;6.43;;;10.00;99.90;;;;;;5206294;28;20025;-73
2023/12/25 03:22:29;;;;;;;10.25;7.35;;;9.80;99.90;;;;;;5222913;28;20112;-70
2023/12/25 03:25:01;;;;;;;13.20;7.78;;;9.80;99.90;;;;;;5227063;28;20032;-70
2023/12/25 03:27:31;;;;;;;13.90;6.93;;;9.90;99.90;;;;;;5226800;28;20052;-71
2023/12/25 03:30:02;;;;;;;12.00;7.38;;;9.80;99.90;;;;;;5226711;28;20115;-74
2023/12/25 03:32:36;;;;;;;11.68;7.78;;;9.80;99.90;;;;;;5226287;28;20017;-70
2023/12/25 03:35:08;;;;;;;12.27;7.03;;;9.80;99.90;;;;;;5210695;28;20071;-72
2023/12/25 03:37:39;;;;;;;10.70;7.75;;;9.70;99.90;;;;;;5204849;28;20481;-70
2023/12/25 03:40:10;;;;;;;14.70;7.93;;;9.70;99.90;;;;;;5204669;28;20036;-72
2023/12/25 03:42:41;;;;;;;14.57;7.70;;;9.80;99.90;;;;;;5204505;28;20381;-70
2023/12/25 03:45:12;;;;;;;18.23;12.10;;;10.00;99.90;;;;;;5203965;28;20041;-71
2023/12/25 03:47:42;;;;;;;16.92;11.20;;;10.20;99.90;;;;;;5203374;28;20065;-71
2023/12/25 03:50:14;;;;;;;17.70;7.85;;;10.20;99.90;;;;;;5204612;28;20049;-72
2023/12/25 03:52:45;;;;;;;16.67;9.85;;;10.50;99.90;;;;;;5205496;28;20064;-71
2023/12/25 03:55:15;;;;;;;18.05;10.63;;;10.40;99.90;;;;;;5205552;28;20021;-71
2023/12/25 03:57:46;;;;;;;17.48;11.05;;;10.60;99.90;;;;;;5205411;28;20104;-71
2023/12/25 04:00:17;;;;;;;18.15;11.90;;;10.50;99.90;;;;;;5204716;28;20037;-71
2023/12/25 04:02:48;;;;;;;20.52;13.38;;;10.70;99.90;;;;;;5205548;28;20056;-72
2023/12/25 04:05:19;;;;;;;20.52;14.38;;;10.50;99.90;;;;;;5205283;28;20029;-71
2023/12/25 04:07:50;;;;;;;17.25;12.68;;;10.40;99.90;;;;;;5204999;28;20041;-71
2023/12/25 04:10:21;;;;;;;20.02;14.55;;;10.40;99.90;;;;;;5205303;28;20075;-71
2023/12/25 04:12:52;;;;;;;20.48;16.92;;;10.70;99.90;;;;;;5205211;28;20057;-70
2023/12/25 04:15:23;;;;;;;19.92;14.52;;;10.60;99.90;;;;;;5205050;28;20057;-71
2023/12/25 04:17:54;;;;;;;21.73;14.50;;;10.40;99.90;;;;;;5204641;28;20033;-72
2023/12/25 04:20:25;;;;;;;24.95;15.30;;;10.60;99.90;;;;;;5205332;28;20025;-71
2023/12/25 04:22:55;;;;;;;19.77;17.52;;;10.40;99.90;;;;;;5205181;28;20036;-71
2023/12/25 04:25:26;;;;;;;21.88;18.90;;;10.40;99.90;;;;;;5204954;28;20032;-71
2023/12/25 04:27:57;;;;;;;23.52;20.17;;;10.40;99.90;;;;;;5202970;28;20041;-70
2023/12/25 04:30:28;;;;;;;24.40;17.92;;;10.20;99.90;;;;;;5203038;28;20068;-71
2023/12/25 04:32:59;;;;;;;24.63;19.48;;;10.30;99.90;;;;;;5202756;28;20025;-71
2023/12/25 04:35:30;;;;;;;18.88;16.95;;;10.30;99.90;;;;;;5204004;28;20026;-71
2023/12/25 04:38:00;;;;;;;17.25;14.73;;;10.10;99.90;;;;;;5202731;28;20021;-71
2023/12/25 04:40:31;;;;;;;15.40;12.93;;;10.00;99.90;;;;;;5203909;28;20462;-70
2023/12/25 04:43:02;;;;;;;17.45;13.38;;;9.70;99.90;;;;;;5204105;28;20774;-71
2023/12/25 04:45:33;;;;;;;16.58;11.00;;;9.80;99.90;;;;;;5204337;28;20030;-71
2023/12/25 04:48:04;;;;;;;19.02;12.50;;;9.80;99.90;;;;;;5203949;28;20378;-71
2023/12/25 04:50:35;;;;;;;17.45;11.35;;;9.80;99.90;;;;;;5204809;28;20457;-71
2023/12/25 04:53:06;;;;;;;16.02;10.63;;;9.90;99.90;;;;;;5204458;28;20032;-71
2023/12/25 04:55:40;;;;;;;17.73;9.52;;;9.90;99.90;;;;;;5204517;28;20469;-71
2023/12/25 04:58:11;;;;;;;16.20;8.10;;;9.90;99.90;;;;;;5204505;28;20109;-71
2023/12/25 05:00:42;;;;;;;13.75;7.50;;;9.90;99.90;;;;;;5203198;28;20109;-70
2023/12/25 05:03:13;;;;;;;15.55;7.35;;;9.80;99.90;;;;;;5204578;28;20037;-70
2023/12/25 05:05:43;;;;;;;15.95;7.30;;;9.70;99.90;;;;;;5204929;28;20029;-70
2023/12/25 05:08:15;;;;;;;17.30;6.88;;;9.60;99.90;;;;;;5204404;28;20482;-71
2023/12/25 05:10:46;;;;;;;17.38;7.75;;;9.40;99.90;;;;;;5204558;28;20018;-70
2023/12/25 05:13:17;;;;;;;19.27;8.38;;;9.70;99.90;;;;;;5203208;28;20036;-71
2023/12/25 05:15:48;;;;;;;19.02;9.02;;;9.90;99.90;;;;;;5204395;28;20022;-71
2023/12/25 05:18:19;;;;;;;16.58;7.93;;;10.10;99.90;;;;;;5204429;28;20116;-70
2023/12/25 05:20:50;;;;;;;14.30;8.57;;;10.20;99.90;;;;;;5204538;28;20418;-71
2023/12/25 05:23:21;;;;;;;15.65;8.07;;;10.20;99.90;;;;;;5202512;28;20535;-72
2023/12/25 05:25:52;;;;;;;15.95;7.68;;;10.30;99.90;;;;;;5203938;28;20049;-71
2023/12/25 05:28:23;;;;;;;15.00;7.00;;;10.40;99.90;;;;;;5203133;28;20073;-71
2023/12/25 05:30:54;;;;;;;18.58;7.32;;;10.60;99.90;;;;;;5206727;28;20187;-70
2023/12/25 05:33:25;;;;;;;16.88;7.30;;;10.50;99.90;;;;;;5207096;28;20109;-71
2023/12/25 05:35:56;;;;;;;16.23;7.53;;;10.60;99.90;;;;;;5207172;28;20780;-70
2023/12/25 05:38:27;;;;;;;19.23;8.15;;;10.50;99.90;;;;;;5207247;28;20108;-70
2023/12/25 05:40:58;;;;;;;16.42;7.07;;;10.60;99.90;;;;;;5207586;28;20096;-71
2023/12/25 05:43:29;;;;;;;14.40;6.60;;;10.60;99.90;;;;;;5208226;28;20021;-70
2023/12/25 05:46:00;;;;;;;13.57;7.07;;;10.80;99.90;;;;;;5206220;28;20028;-71
2023/12/25 05:48:31;;;;;;;18.65;6.88;;;10.80;99.90;;;;;;5207786;28;20060;-71
2023/12/25 05:51:02;;;;;;;16.42;7.50;;;10.80;99.90;;;;;;5206735;28;20033;-72
2023/12/25 05:53:33;;;;;;;14.63;7.80;;;10.80;99.90;;;;;;5208234;28;20040;-71
2023/12/25 05:56:04;;;;;;;13.43;7.28;;;10.90;99.90;;;;;;5207947;28;20021;-70
2023/12/25 05:58:35;;;;;;;13.57;8.45;;;10.80;99.90;;;;;;5212756;28;20380;-72
2023/12/25 06:01:08;;;;;;;17.08;8.55;;;10.90;99.90;;;;;;5217837;28;20024;-70
2023/12/25 06:03:40;;;;;;;14.32;8.80;;;10.80;99.90;;;;;;5228341;28;20368;-72
2023/12/25 06:06:10;;;;;;;13.18;9.30;;;10.80;99.90;;;;;;5217242;28;20108;-71
2023/12/25 06:08:41;;;;;;;19.45;8.38;;;10.90;99.90;;;;;;5219982;28;20136;-74
2023/12/25 06:11:12;;;;;;;19.67;9.43;;;10.70;99.90;;;;;;5217305;28;20021;-73
2023/12/25 06:13:43;;;;;;;17.88;9.30;;;10.70;99.90;;;;;;5221909;28;20087;-71
2023/12/25 06:16:15;;;;;;;14.70;8.93;;;10.70;99.90;;;;;;5219740;28;20477;-71
2023/12/25 06:18:46;;;;;;;50.25;12.25;;;10.80;99.90;;;;;;5206733;28;20041;-74
2023/12/25 06:21:17;;;;;;;22.17;10.18;;;11.10;99.90;;;;;;5206834;28;20032;-72
2023/12/25 06:23:48;;;;;;;88.38;43.42;;;11.00;99.90;;;;;;5205072;28;20033;-72
2023/12/25 06:26:19;;;;;;;38.97;23.02;;;11.30;99.90;;;;;;5204679;28;20049;-70
2023/12/25 06:28:49;;;;;;;21.73;12.05;;;11.40;99.90;;;;;;5200667;28;20064;-72
2023/12/25 06:31:20;;;;;;;14.85;10.52;;;11.30;99.90;;;;;;5200023;28;20380;-71
2023/12/25 06:33:51;;;;;;;17.02;10.73;;;11.40;99.90;;;;;;5206453;28;20473;-70
2023/12/25 06:36:22;;;;;;;15.85;10.85;;;11.40;99.90;;;;;;5206695;28;20021;-72
2023/12/25 06:38:53;;;;;;;20.45;9.52;;;11.60;99.90;;;;;;5207076;28;20354;-71
2023/12/25 06:41:24;;;;;;;13.98;9.18;;;11.60;99.90;;;;;;5206749;28;20096;-71
2023/12/25 06:43:55;;;;;;;17.38;9.77;;;11.80;99.90;;;;;;5206851;28;20060;-71
2023/12/25 06:46:25;;;;;;;14.13;9.23;;;12.00;99.90;;;;;;5219232;28;20112;-73
2023/12/25 06:48:56;;;;;;;14.73;9.32;;;12.10;99.90;;;;;;5227150;28;20409;-71
2023/12/25 06:51:27;;;;;;;17.52;9.52;;;12.20;99.90;;;;;;5226316;28;20036;-71
2023/12/25 06:53:58;;;;;;;14.48;10.20;;;12.40;99.90;;;;;;5225852;28;20037;-74
2023/12/25 06:56:29;;;;;;;16.15;10.75;;;12.40;99.90;;;;;;5227291;28;20027;-71
2023/12/25 06:59:00;;;;;;;17.33;11.57;;;12.50;99.90;;;;;;5227398;28;20036;-73
2023/12/25 07:01:32;;;;;;;18.73;12.43;;;12.60;99.90;;;;;;5227267;28;20029;-73
2023/12/25 07:04:03;;;;;;;14.02;12.15;;;12.70;99.90;;;;;;5227480;28;20025;-73
2023/12/25 07:06:34;;;;;;;15.93;13.07;;;12.90;99.90;;;;;;5227215;28;20483;-75
2023/12/25 07:09:04;;;;;;;16.75;12.93;;;13.00;99.90;;;;;;5226862;28;20126;-73
2023/12/25 07:11:36;;;;;;;14.65;12.73;;;13.10;99.90;;;;;;5217670;28;20024;-74
2023/12/25 07:14:06;;;;;;;18.58;13.40;;;13.10;99.90;;;;;;5218533;28;20496;-71
2023/12/25 07:16:37;;;;;;;14.27;11.27;;;13.40;99.90;;;;;;5214708;28;20099;-72
2023/12/25 07:19:08;;;;;;;16.55;11.82;;;13.60;99.90;;;;;;5215740;28;20523;-74
2023/12/25 07:21:40;;;;;;;19.20;11.23;;;13.60;99.90;;;;;;5214309;28;20434;-74
2023/12/25 07:24:12;;;;;;;14.35;10.15;;;13.60;99.90;;;;;;5207907;28;20420;-74
2023/12/25 07:26:44;;;;;;;17.25;12.30;;;13.80;99.90;;;;;;5215285;28;20029;-74
2023/12/25 07:29:16;;;;;;;14.43;12.98;;;13.80;99.90;;;;;;5215074;28;20082;-75
2023/12/25 07:31:47;;;;;;;23.02;14.55;;;14.00;99.90;;;;;;5209878;28;20036;-75
2023/12/25 07:34:19;;;;;;;14.68;13.05;;;14.00;99.90;;;;;;5215089;28;20029;-74
2023/12/25 07:36:50;;;;;;;15.90;12.07;;;14.10;99.90;;;;;;5215500;28;20025;-75
2023/12/25 07:39:20;;;;;;;20.58;12.27;;;14.20;99.90;;;;;;5215089;28;20029;-72
2023/12/25 07:41:55;;;;;;;18.52;12.15;;;14.30;99.90;;;;;;5215166;28;20699;-71
2023/12/25 07:44:26;;;;;;;12.95;11.05;;;14.50;99.90;;;;;;5655035;23;20005;-71
2023/12/25 07:46:57;;;;;;;15.30;10.70;;;14.60;99.90;;;;;;5234254;28;20052;-72
2023/12/25 07:49:28;;;;;;;15.27;10.15;;;14.70;99.90;;;;;;5223871;28;20112;-73
2023/12/25 07:51:58;;;;;;;13.27;8.70;;;14.80;99.90;;;;;;5224709;28;20074;-71
2023/12/25 07:54:30;;;;;;;15.13;9.07;;;14.90;99.90;;;;;;5245008;28;20021;-71
2023/12/25 07:57:01;;;;;;;14.75;8.57;;;15.00;99.90;;;;;;5246619;28;20032;-74
2023/12/25 07:59:32;;;;;;;10.55;8.50;;;15.20;99.90;;;;;;5246646;28;20093;-71
2023/12/25 08:02:03;;;;;;;14.43;9.43;;;15.20;99.90;;;;;;5246720;28;20541;-74
2023/12/25 08:04:34;;;;;;;14.48;8.95;;;15.30;99.90;;;;;;5246895;28;20035;-71
2023/12/25 08:07:05;;;;;;;11.18;9.15;;;15.30;99.90;;;;;;5245271;28;20048;-71
2023/12/25 08:09:36;;;;;;;12.30;10.00;;;15.50;99.90;;;;;;5237202;28;20492;-71
2023/12/25 08:12:07;;;;;;;12.75;10.38;;;15.80;99.90;;;;;;5225623;28;20025;-73
2023/12/25 08:14:40;;;;;;;13.27;9.02;;;15.80;99.90;;;;;;5224339;28;20033;-72
2023/12/25 08:17:11;;;;;;;12.90;8.80;;;15.80;99.90;;;;;;5224856;28;20047;-72
2023/12/25 08:19:42;;;;;;;12.45;8.73;;;16.00;99.90;;;;;;5223684;28;20033;-73
2023/12/25 08:22:13;;;;;;;12.02;10.65;;;16.00;99.90;;;;;;5224484;28;20036;-73
2023/12/25 08:24:44;;;;;;;15.63;11.07;;;16.20;99.90;;;;;;5224400;28;20017;-72
2023/12/25 08:27:15;;;;;;;13.90;9.43;;;16.30;99.90;;;;;;5224387;28;20124;-74
2023/12/25 08:29:46;;;;;;;14.23;7.85;;;16.50;99.90;;;;;;5225412;28;20492;-71
2023/12/25 08:32:17;;;;;;;12.02;8.35;;;16.50;99.90;;;;;;5225394;28;20154;-74
2023/12/25 08:34:47;;;;;;;12.10;7.63;;;16.60;99.90;;;;;;5225562;28;20079;-72
2023/12/25 08:37:18;;;;;;;14.43;9.82;;;16.80;99.90;;;;;;5225102;28;20671;-71
2023/12/25 08:39:50;;;;;;;12.93;9.63;;;16.70;99.90;;;;;;5225178;28;20431;-72
2023/12/25 08:42:20;;;;;;;14.38;8.85;;;16.90;99.90;;;;;;5224846;28;20029;-72
2023/12/25 08:44:51;;;;;;;13.25;8.57;;;17.10;99.90;;;;;;5224762;28;20040;-71
2023/12/25 08:47:23;;;;;;;18.42;8.50;;;17.20;99.90;;;;;;5225228;28;20128;-72
2023/12/25 08:49:54;;;;;;;12.38;7.65;;;17.10;99.90;;;;;;5223929;28;20086;-73
2023/12/25 08:52:25;;;;;;;15.93;8.68;;;17.10;99.90;;;;;;5223789;28;20029;-74
2023/12/25 08:54:56;;;;;;;12.40;8.73;;;17.40;99.90;;;;;;5225147;28;20025;-70
2023/12/25 08:57:27;;;;;;;13.32;9.40;;;17.40;99.90;;;;;;5225078;28;20124;-71
2023/12/25 08:59:58;;;;;;;14.95;9.27;;;17.50;99.90;;;;;;5225171;28;20073;-71
2023/12/25 09:02:31;;;;;;;13.52;9.88;;;17.70;99.90;;;;;;5223224;28;20032;-74
2023/12/25 09:05:02;;;;;;;14.57;11.93;;;17.60;99.90;;;;;;5228525;28;20100;-73
2023/12/25 09:07:32;;;;;;;13.70;10.65;;;17.80;99.90;;;;;;5228844;28;20548;-73
2023/12/25 09:10:06;;;;;;;13.88;10.98;;;17.70;99.90;;;;;;5227400;28;20652;-71
2023/12/25 09:12:38;;;;;;;14.63;12.30;;;17.80;99.90;;;;;;5226866;28;20036;-71
2023/12/25 09:15:09;;;;;;;13.65;10.90;;;17.60;99.90;;;;;;5226786;28;20477;-72
2023/12/25 09:17:40;;;;;;;15.45;12.13;;;17.50;99.90;;;;;;5228189;28;20377;-71
2023/12/25 09:20:11;;;;;;;14.40;11.20;;;17.70;99.90;;;;;;5228203;28;20070;-72
2023/12/25 09:22:42;;;;;;;13.57;9.57;;;17.80;99.90;;;;;;5228086;28;20819;-72
2023/12/25 09:25:13;;;;;;;12.57;8.38;;;18.00;99.90;;;;;;5228497;28;20024;-70
2023/12/25 09:27:43;;;;;;;13.10;8.70;;;18.10;99.90;;;;;;5229187;28;20037;-74
2023/12/25 09:30:14;;;;;;;10.57;7.85;;;18.30;99.90;;;;;;5229198;28;20416;-70
2023/12/25 09:32:45;;;;;;;15.15;8.52;;;18.20;99.90;;;;;;5230147;28;20426;-70
2023/12/25 09:35:18;;;;;;;10.73;8.48;;;17.90;99.90;;;;;;5212102;28;20025;-72
2023/12/25 09:37:48;;;;;;;16.83;10.52;;;18.20;99.90;;;;;;5225364;28;20063;-72
2023/12/25 09:40:19;;;;;;;13.73;10.98;;;18.30;99.90;;;;;;5226787;28;20106;-74
2023/12/25 09:42:50;;;;;;;15.43;12.00;;;18.20;99.90;;;;;;5228170;28;20025;-70
2023/12/25 09:45:26;;;;;;;17.20;13.77;;;18.40;99.90;;;;;;5227671;28;20413;-71
2023/12/25 09:47:57;;;;;;;17.30;14.90;;;18.40;99.90;;;;;;5227875;28;20074;-71
2023/12/25 09:50:31;;;;;;;15.10;13.75;;;18.50;99.90;;;;;;5227975;28;20017;-71
2023/12/25 09:53:02;;;;;;;17.13;14.55;;;18.60;99.90;;;;;;5226857;28;20044;-70
2023/12/25 09:55:33;;;;;;;16.75;15.02;;;18.60;99.90;;;;;;5228152;28;20021;-71
2023/12/25 09:58:06;;;;;;;16.80;15.18;;;18.60;99.90;;;;;;5227993;28;20036;-72
2023/12/25 10:00:37;;;;;;;15.98;14.38;;;18.50;99.90;;;;;;5227655;28;20147;-72
2023/12/25 10:03:08;;;;;;;17.48;15.52;;;18.70;99.90;;;;;;5227468;28;20124;-72
2023/12/25 10:05:39;;;;;;;15.43;13.60;;;18.70;99.90;;;;;;5226793;28;20143;-70
2023/12/25 10:08:10;;;;;;;16.45;14.95;;;18.80;99.90;;;;;;5225366;28;20736;-71
2023/12/25 10:10:42;;;;;;;19.05;13.60;;;18.60;99.90;;;;;;5226712;28;20028;-71
2023/12/25 10:13:13;;;;;;;16.60;13.82;;;18.70;99.90;;;;;;5226785;28;20054;-74
2023/12/25 10:15:44;;;;;;;14.48;12.98;;;18.70;99.90;;;;;;5225668;28;20036;-73
2023/12/25 10:18:15;;;;;;;15.60;12.27;;;18.80;99.90;;;;;;5226259;28;20033;-72
2023/12/25 10:20:59;;;;;;;18.33;13.93;;;19.00;99.90;;;;;;5225636;28;20025;-71
2023/12/25 10:23:34;;;;;;;14.30;12.90;;;18.60;99.90;;;;;;5225005;28;20066;-70
2023/12/25 10:26:05;;;;;;;16.52;13.02;;;18.90;99.90;;;;;;5227684;28;20025;-70
2023/12/25 10:28:38;;;;;;;15.13;13.68;;;18.80;99.90;;;;;;5226192;28;20054;-70
2023/12/25 10:31:10;;;;;;;17.88;14.45;;;18.90;99.90;;;;;;5218247;28;20081;-73
2023/12/25 10:33:57;;;;;;;14.70;13.20;;;18.80;99.90;;;;;;5227749;28;20373;-71
2023/12/25 10:36:28;;;;;;;14.32;12.95;;;19.00;99.90;;;;;;5219681;28;20025;-73
2023/12/25 10:39:00;;;;;;;14.50;13.07;;;19.20;99.90;;;;;;5227364;28;20384;-73
2023/12/25 10:41:33;;;;;;;16.90;12.88;;;19.00;99.90;;;;;;5227184;28;20369;-73
2023/12/25 10:44:04;;;;;;;14.43;12.98;;;19.20;99.90;;;;;;5225708;28;20536;-70
2023/12/25 10:46:37;;;;;;;16.98;12.38;;;19.30;99.90;;;;;;5225491;28;20053;-72
2023/12/25 10:49:09;;;;;;;15.68;11.85;;;18.90;99.90;;;;;;5224221;28;20048;-74
2023/12/25 10:51:46;;;;;;;14.65;12.95;;;19.30;99.90;;;;;;5226681;28;20429;-73
2023/12/25 10:54:18;;;;;;;16.02;13.10;;;19.50;99.90;;;;;;5225135;28;20029;-72
2023/12/25 10:56:50;;;;;;;17.38;13.45;;;19.70;99.90;;;;;;5226548;28;20013;-71
2023/12/25 10:59:24;;;;;;;15.23;11.50;;;19.60;99.90;;;;;;5226179;28;20029;-73
2023/12/25 11:01:58;;;;;;;16.55;13.55;;;19.80;99.90;;;;;;5225601;28;20104;-74
2023/12/25 11:04:30;;;;;;;15.45;12.80;;;19.80;99.90;;;;;;5220286;28;20028;-71
2023/12/25 11:07:04;;;;;;;14.50;11.73;;;19.60;99.90;;;;;;5223434;28;20013;-70
2023/12/25 11:09:35;;;;;;;16.75;11.27;;;19.30;99.90;;;;;;5221485;28;20060;-71
2023/12/25 11:12:07;;;;;;;13.75;12.25;;;19.50;99.90;;;;;;5225583;28;20025;-72
2023/12/25 11:14:38;;;;;;;17.25;13.95;;;19.60;99.90;;;;;;5225130;28;20041;-73
2023/12/25 11:17:09;;;;;;;15.43;13.07;;;19.60;99.90;;;;;;5226070;28;20028;-70
2023/12/25 11:19:40;;;;;;;14.30;11.52;;;19.90;99.90;;;;;;5225532;28;20040;-70
2023/12/25 11:22:33;;;;;;;16.25;12.20;;;20.00;99.90;;;;;;5227002;28;20366;-74
2023/12/25 11:25:05;;;;;;;14.60;9.60;;;20.40;99.90;;;;;;5225666;28;20017;-71
2023/12/25 11:27:36;;;;;;;12.45;10.77;;;19.90;99.90;;;;;;5225625;28;20029;-74
2023/12/25 11:30:12;;;;;;;14.25;11.50;;;20.00;99.90;;;;;;5226208;28;20033;-72
2023/12/25 11:32:45;;;;;;;17.60;11.48;;;20.10;99.90;;;;;;5226387;28;20036;-73
2023/12/25 11:35:27;;;;;;;16.60;10.65;;;20.20;99.90;;;;;;5220090;28;20045;-72
2023/12/25 11:38:17;;;;;;;16.65;9.90;;;20.00;99.90;;;;;;5220560;28;20031;-73
2023/12/25 11:40:50;;;;;;;16.92;10.55;;;19.80;99.90;;;;;;5225393;28;20027;-73
2023/12/25 11:43:23;;;;;;;16.52;9.60;;;20.30;99.90;;;;;;5224996;28;20037;-73
2023/12/25 11:45:56;;;;;;;14.18;9.55;;;20.10;99.90;;;;;;5220494;28;20041;-75
2023/12/25 11:48:34;;;;;;;16.58;9.90;;;20.30;99.90;;;;;;5222971;28;20069;-75
2023/12/25 11:51:25;;;;;;;12.57;7.93;;;20.70;99.90;;;;;;5226173;28;20350;-70
2023/12/25 11:53:58;;;;;;;14.45;8.25;;;20.60;99.90;;;;;;5224388;28;20037;-72
2023/12/25 11:56:30;;;;;;;14.77;7.88;;;20.80;99.90;;;;;;5226162;28;20094;-73
2023/12/25 11:59:01;;;;;;;13.88;8.75;;;20.80;99.90;;;;;;5226557;28;20033;-74
2023/12/25 12:01:33;;;;;;;15.88;9.63;;;21.20;99.90;;;;;;5225154;28;20358;-73
2023/12/25 12:04:04;;;;;;;16.58;8.77;;;20.80;99.90;;;;;;5226332;28;20017;-70
2023/12/25 12:06:35;;;;;;;13.10;8.98;;;21.00;99.90;;;;;;5226151;28;20358;-71
2023/12/25 12:09:06;;;;;;;17.05;9.10;;;21.30;99.90;;;;;;5226198;28;20377;-70
2023/12/25 12:11:37;;;;;;;17.45;8.65;;;21.00;99.90;;;;;;5226199;28;20055;-70
2023/12/25 12:14:08;;;;;;;16.75;9.45;;;20.80;99.90;;;;;;5664970;23;20169;-69
2023/12/25 12:16:41;;;;;;;16.00;9.25;;;21.00;99.90;;;;;;5200417;28;20048;-72
2023/12/25 12:19:13;;;;;;;12.65;9.00;;;21.00;99.90;;;;;;5202856;28;20017;-74
2023/12/25 12:21:44;;;;;;;14.13;10.10;;;21.80;99.90;;;;;;5204056;28;20025;-70
2023/12/25 12:24:28;;;;;;;15.38;10.25;;;21.60;99.90;;;;;;5203573;28;20026;-70
2023/12/25 12:27:04;;;;;;;14.02;8.02;;;22.40;99.90;;;;;;5203932;28;20083;-71
2023/12/25 12:29:35;;;;;;;14.00;7.97;;;23.70;99.90;;;;;;5203914;28;20021;-75
2023/12/25 12:32:06;;;;;;;12.07;6.07;;;23.80;99.90;;;;;;5204684;28;20583;-72
2023/12/25 12:34:37;;;;;;;10.77;6.38;;;25.70;99.90;;;;;;5205147;28;20083;-73
2023/12/25 12:37:10;;;;;;;12.82;7.40;;;28.50;99.90;;;;;;5204743;28;20113;-73
2023/12/25 12:39:42;;;;;;;11.60;6.95;;;32.80;99.90;;;;;;5204823;28;20025;-73
2023/12/25 12:42:13;;;;;;;10.43;8.20;;;33.80;99.90;;;;;;5205217;28;20061;-74
2023/12/25 12:44:48;;;;;;;10.43;7.00;;;32.80;99.90;;;;;;5205045;28;20484;-75
2023/12/25 12:47:19;;;;;;;15.40;8.60;;;33.60;99.90;;;;;;5205030;28;20064;-73
2023/12/25 12:49:50;;;;;;;14.32;8.52;;;33.20;99.90;;;;;;5205662;28;20025;-70
2023/12/25 12:52:21;;;;;;;10.18;7.75;;;32.70;99.10;;;;;;5205171;28;20028;-72
2023/12/25 12:54:52;;;;;;;11.98;7.00;;;32.60;98.30;;;;;;5204993;28;20037;-70